Time;durP1;ratioP1;P1;durP2;ratioP2;P2;SDS_P1;SDS_P2;PMS_P1;PMS_P2;Temp;Humidity;BMP_temperature;BMP_pressure;BME280_temperature;BME280_humidity;BME280_pressure;Samples;Min_cycle;Max_cycle;Signal;HPM_P1;HPM_P2
2022/04/19 00:01:15;;;;;;;2.87;2.45;;;;;;;18.74;33.07;100406.48;1742969;82;20955;-59
2022/04/19 00:03:41;;;;;;;3.67;2.40;;;;;;;18.74;33.10;100410.61;1742832;82;21580;-59
2022/04/19 00:06:07;;;;;;;4.05;2.58;;;;;;;18.73;33.13;100406.78;1742731;82;20878;-59
2022/04/19 00:08:34;;;;;;;2.30;1.82;;;;;;;18.71;33.14;100409.28;1742692;82;20988;-59
2022/04/19 00:11:02;;;;;;;2.83;2.10;;;;;;;18.70;33.14;100407.67;1743047;81;21495;-59
2022/04/19 00:13:28;;;;;;;3.60;2.12;;;;;;;18.69;33.16;100407.42;1742693;81;21044;-59
2022/04/19 00:15:56;;;;;;;4.03;2.10;;;;;;;18.70;33.19;100410.99;1743117;81;21598;-59
2022/04/19 00:18:22;;;;;;;2.87;2.00;;;;;;;18.68;33.20;100407.72;1743103;82;21585;-59
2022/04/19 00:20:49;;;;;;;3.45;2.05;;;;;;;18.67;33.21;100409.66;1742716;82;20980;-59
2022/04/19 00:23:15;;;;;;;2.80;2.00;;;;;;;18.66;33.21;100414.95;1745720;81;21024;-59
2022/04/19 00:25:43;;;;;;;2.55;2.00;;;;;;;18.66;33.24;100406.67;1745819;81;20933;-59
2022/04/19 00:28:10;;;;;;;2.50;2.17;;;;;;;18.67;33.24;100411.62;1737950;82;21056;-59
2022/04/19 00:30:37;;;;;;;2.65;2.08;;;;;;;18.67;33.25;100413.01;1727593;82;20942;-59
2022/04/19 00:33:07;;;;;;;2.60;2.00;;;;;;;18.65;33.25;100408.36;1732359;82;20903;-59
2022/04/19 00:35:34;;;;;;;2.67;2.30;;;;;;;18.65;33.29;100411.11;1732319;82;21033;-59
2022/04/19 00:38:00;;;;;;;3.27;2.00;;;;;;;18.63;33.30;100411.98;1732128;82;21001;-59
2022/04/19 00:40:26;;;;;;;2.87;2.05;;;;;;;18.64;33.29;100408.10;1732015;82;21247;-59
2022/04/19 00:42:54;;;;;;;2.60;1.95;;;;;;;18.64;33.31;100410.30;1732401;82;21254;-59
2022/04/19 00:45:20;;;;;;;3.45;2.33;;;;;;;18.64;33.30;100406.72;1732462;82;20953;-59
2022/04/19 00:47:47;;;;;;;3.40;2.15;;;;;;;18.64;33.31;100405.34;1732298;82;21752;-59
2022/04/19 00:50:13;;;;;;;2.55;1.77;;;;;;;18.64;33.31;100399.84;1732001;82;20985;-59
2022/04/19 00:52:39;;;;;;;2.55;2.05;;;;;;;18.62;33.31;100396.03;1732171;82;21202;-59
2022/04/19 00:55:11;;;;;;;2.85;1.82;;;;;;;18.61;33.33;100395.78;1732044;82;20906;-59
2022/04/19 00:57:40;;;;;;;3.30;2.20;;;;;;;18.62;33.36;100400.17;1731289;82;21207;-59
2022/04/19 01:00:08;;;;;;;3.22;2.47;;;;;;;18.61;33.35;100390.27;1732122;82;20963;-59
2022/04/19 01:02:36;;;;;;;2.72;2.10;;;;;;;18.60;33.37;100387.25;1732373;82;21022;-59
2022/04/19 01:05:04;;;;;;;2.75;2.05;;;;;;;18.60;33.34;100385.87;1732111;82;21316;-59
2022/04/19 01:07:30;;;;;;;3.05;2.20;;;;;;;18.60;33.38;100383.68;1732039;82;20934;-59
2022/04/19 01:09:56;;;;;;;2.72;2.00;;;;;;;18.60;33.38;100386.44;1711362;82;21028;-59
2022/04/19 01:15:09;;;;;;;2.58;2.15;;;;;;;18.59;33.38;100382.86;1732235;82;20957;-59
2022/04/19 01:17:39;;;;;;;2.95;2.33;;;;;;;18.58;33.40;100381.27;1731829;82;21347;-59
2022/04/19 01:20:10;;;;;;;2.33;2.02;;;;;;;18.58;33.41;100375.75;1732148;82;20985;-59
2022/04/19 01:22:40;;;;;;;2.40;2.00;;;;;;;18.58;33.42;100376.31;1734923;81;21376;-59
2022/04/19 01:25:08;;;;;;;3.25;2.00;;;;;;;18.57;33.42;100382.38;1748371;81;20941;-59
2022/04/19 01:27:34;;;;;;;3.22;1.82;;;;;;;18.57;33.42;100372.73;1750576;81;21024;-59
2022/04/19 01:30:05;;;;;;;3.35;2.12;;;;;;;18.57;33.45;100375.49;1745573;81;21275;-59
2022/04/19 01:32:32;;;;;;;2.83;2.00;;;;;;;18.57;33.45;100366.41;1742894;81;20925;-59
2022/04/19 01:35:13;;;;;;;2.70;1.72;;;;;;;18.57;33.45;100377.44;1743307;81;21000;-59
2022/04/19 01:37:43;;;;;;;2.58;2.02;;;;;;;18.56;33.44;100371.10;1741909;81;20885;-60
2022/04/19 01:40:18;;;;;;;2.60;2.10;;;;;;;18.55;33.44;100372.22;1743328;82;21391;-60
2022/04/19 01:42:54;;;;;;;2.45;1.95;;;;;;;18.55;33.43;100370.03;1743283;81;21298;-60
2022/04/19 01:45:25;;;;;;;2.40;1.80;;;;;;;18.55;33.43;100371.41;1743402;82;20898;-60
2022/04/19 01:47:53;;;;;;;2.98;2.10;;;;;;;18.54;33.45;100367.83;1742805;81;20858;-60
2022/04/19 01:50:20;;;;;;;2.52;1.80;;;;;;;18.54;33.44;100373.94;1743172;82;21013;-60
2022/04/19 01:52:47;;;;;;;3.17;2.35;;;;;;;18.54;33.47;100375.31;1743295;81;20941;-60
2022/04/19 01:55:15;;;;;;;2.20;1.82;;;;;;;18.54;33.44;100373.94;1742870;81;21646;-60
2022/04/19 01:57:44;;;;;;;2.40;1.70;;;;;;;18.53;33.45;100370.92;1743018;82;20989;-60
2022/04/19 02:00:12;;;;;;;3.05;1.90;;;;;;;18.53;33.47;100366.80;1745652;82;20965;-60
2022/04/19 02:02:38;;;;;;;2.42;2.00;;;;;;;18.53;33.49;100368.17;1745879;81;21581;-60
2022/04/19 02:05:06;;;;;;;2.60;2.08;;;;;;;18.52;33.49;100364.59;1744449;82;20965;-60
2022/04/19 02:07:33;;;;;;;2.60;1.98;;;;;;;18.52;33.49;100365.13;1743162;82;21651;-60
2022/04/19 02:10:00;;;;;;;2.30;1.70;;;;;;;18.52;33.48;100362.37;1742596;82;20954;-60
2022/04/19 02:12:27;;;;;;;2.17;1.72;;;;;;;18.52;33.49;100363.75;1743292;81;20964;-60
2022/04/19 02:14:53;;;;;;;3.00;1.98;;;;;;;18.52;33.50;100362.37;1743290;82;20977;-60
2022/04/19 02:17:20;;;;;;;2.42;1.70;;;;;;;18.52;33.50;100369.26;1742990;82;21013;-60
2022/04/19 02:19:47;;;;;;;3.02;2.00;;;;;;;18.52;33.49;100364.59;1742777;82;21072;-60
2022/04/19 02:22:13;;;;;;;3.52;1.82;;;;;;;18.52;33.49;100368.73;1743272;82;20889;-59
2022/04/19 02:24:39;;;;;;;3.70;2.05;;;;;;;18.52;33.50;100369.26;1739747;82;21498;-60
2022/04/19 02:27:05;;;;;;;3.62;2.10;;;;;;;18.52;33.51;100369.26;1733142;82;20987;-60
2022/04/19 02:29:32;;;;;;;2.87;1.52;;;;;;;18.51;33.50;100373.13;1730187;82;21951;-60
2022/04/19 02:31:58;;;;;;;3.37;2.17;;;;;;;18.52;33.49;100373.39;1726302;82;21318;-60
2022/04/19 02:34:24;;;;;;;2.80;2.00;;;;;;;18.51;33.51;100366.25;1726604;82;21425;-59
2022/04/19 02:36:53;;;;;;;2.87;1.72;;;;;;;18.50;33.51;100370.94;1726540;83;20863;-60
2022/04/19 02:39:20;;;;;;;2.35;1.80;;;;;;;18.51;33.53;100373.13;1726142;83;21077;-60
2022/04/19 02:41:46;;;;;;;2.95;2.00;;;;;;;18.50;33.52;100374.28;1726629;83;21289;-60
2022/04/19 02:44:13;;;;;;;2.65;2.00;;;;;;;18.50;33.53;100371.53;1726882;83;21251;-60
2022/04/19 02:46:39;;;;;;;2.67;1.90;;;;;;;18.49;33.54;100371.27;1726091;83;21066;-60
2022/04/19 02:49:05;;;;;;;4.50;2.08;;;;;;;18.50;33.53;100373.69;1726522;83;20974;-59
2022/04/19 02:51:32;;;;;;;2.15;1.70;;;;;;;18.49;33.57;100370.71;1726216;83;21327;-60
2022/04/19 02:53:58;;;;;;;3.40;2.40;;;;;;;18.50;33.57;100371.53;1726327;83;20954;-60
2022/04/19 02:56:24;;;;;;;2.40;1.90;;;;;;;18.49;33.59;100375.41;1726543;83;21680;-60
2022/04/19 02:58:51;;;;;;;2.95;1.82;;;;;;;18.48;33.60;100377.90;1726306;83;20989;-60
2022/04/19 03:01:17;;;;;;;3.40;1.87;;;;;;;18.47;33.60;100379.84;1726547;83;20895;-60
2022/04/19 03:03:43;;;;;;;2.20;1.90;;;;;;;18.47;33.62;100385.91;1726619;83;20907;-60
2022/04/19 03:06:09;;;;;;;3.15;1.95;;;;;;;18.46;33.63;100384.30;1726602;83;21015;-60
2022/04/19 03:08:35;;;;;;;2.17;1.80;;;;;;;18.46;33.63;100390.59;1726204;83;21759;-60
2022/04/19 03:11:02;;;;;;;3.75;1.90;;;;;;;18.45;33.66;100395.88;1726850;83;20953;-60
2022/04/19 03:13:29;;;;;;;3.87;2.10;;;;;;;18.45;33.67;100398.63;1726758;83;20986;-60
2022/04/19 03:15:55;;;;;;;2.80;1.95;;;;;;;18.46;33.66;100409.09;1726523;83;21021;-60
2022/04/19 03:18:21;;;;;;;1.82;1.60;;;;;;;18.46;33.66;100414.02;1726329;83;21393;-60
2022/04/19 03:20:47;;;;;;;2.92;2.10;;;;;;;18.45;33.67;100418.48;1726377;82;21103;-60
2022/04/19 03:28:45;;;;;;;2.12;1.70;;;;;;;18.45;33.69;100424.80;1732558;82;20903;-59
2022/04/19 03:31:12;;;;;;;2.58;1.82;;;;;;;18.44;33.67;100421.79;1745087;81;21036;-60
2022/04/19 03:33:39;;;;;;;2.47;1.85;;;;;;;18.44;33.67;100431.99;1745242;81;21784;-60
2022/04/19 03:36:08;;;;;;;2.70;2.00;;;;;;;18.45;33.69;100435.00;1744962;81;21345;-60
2022/04/19 03:38:37;;;;;;;2.35;1.67;;;;;;;18.44;33.68;100432.81;1745284;82;20924;-60
2022/04/19 03:41:03;;;;;;;3.37;2.25;;;;;;;18.43;33.70;100435.30;1745380;81;21351;-60
2022/04/19 03:43:31;;;;;;;3.55;1.87;;;;;;;18.42;33.69;100433.67;1745341;81;21623;-60
2022/04/19 03:45:57;;;;;;;2.85;2.00;;;;;;;18.44;33.69;100438.88;1745279;82;21508;-60
2022/04/19 03:48:23;;;;;;;2.58;1.92;;;;;;;18.44;33.70;100443.83;1745508;82;20979;-60
2022/04/19 03:50:51;;;;;;;3.65;2.30;;;;;;;18.45;33.74;100446.02;1745107;82;21486;-60
2022/04/19 03:53:17;;;;;;;2.25;1.87;;;;;;;18.44;33.77;100441.07;1745452;82;22099;-60
2022/04/19 03:55:43;;;;;;;3.20;1.67;;;;;;;18.47;33.80;100445.95;1745642;82;20881;-60
2022/04/19 03:58:09;;;;;;;2.22;1.62;;;;;;;18.49;33.80;100447.84;1745253;82;21304;-60
2022/04/19 04:00:35;;;;;;;2.45;1.70;;;;;;;18.53;33.79;100450.81;1745217;82;21401;-60
2022/04/19 04:03:01;;;;;;;2.45;1.60;;;;;;;18.57;33.81;100451.82;1745389;81;20893;-60
2022/04/19 04:05:29;;;;;;;2.62;1.95;;;;;;;18.63;33.75;100456.06;1745253;81;21267;-58
2022/04/19 04:07:58;;;;;;;1.95;1.50;;;;;;;18.68;33.70;100457.32;1745452;82;21051;-59
2022/04/19 04:10:24;;;;;;;2.58;1.70;;;;;;;18.76;33.63;100456.56;1745271;82;21243;-59
2022/04/19 04:12:50;;;;;;;2.62;1.77;;;;;;;18.85;33.57;100466.28;1745228;82;20901;-59
2022/04/19 04:15:17;;;;;;;3.55;1.70;;;;;;;18.91;33.51;100463.66;1745429;82;20877;-59
2022/04/19 04:17:43;;;;;;;2.30;1.67;;;;;;;19.00;33.44;100470.05;1745007;82;21374;-59
2022/04/19 04:20:11;;;;;;;2.98;1.80;;;;;;;19.08;33.39;100475.61;1745118;82;20980;-59
2022/04/19 04:22:43;;;;;;;2.75;1.80;;;;;;;19.16;33.33;100470.71;1745456;82;21093;-59
2022/04/19 04:25:09;;;;;;;2.20;1.70;;;;;;;19.24;33.23;100474.64;1712300;82;21032;-59
2022/04/19 04:27:35;;;;;;;2.10;1.60;;;;;;;19.33;33.16;100476.06;1707391;83;21051;-59
2022/04/19 04:30:01;;;;;;;2.10;1.60;;;;;;;19.40;33.11;100480.55;1706123;83;20914;-59
2022/04/19 04:32:27;;;;;;;1.90;1.57;;;;;;;19.47;33.04;100485.10;1706048;83;21060;-59
2022/04/19 04:34:53;;;;;;;2.50;1.60;;;;;;;19.52;32.99;100486.31;1705714;84;21896;-59
2022/04/19 04:37:20;;;;;;;2.47;1.80;;;;;;;19.57;32.96;100488.94;1705959;84;20962;-59
2022/04/19 04:39:47;;;;;;;3.05;1.60;;;;;;;19.61;32.90;100494.89;1705824;83;21386;-59
2022/04/19 04:42:13;;;;;;;2.87;1.70;;;;;;;19.66;32.87;100501.40;1705541;84;20989;-59
2022/04/19 04:44:39;;;;;;;2.20;1.57;;;;;;;19.70;32.84;100493.55;1702591;83;21406;-59
2022/04/19 04:49:50;;;;;;;2.98;1.70;;;;;;;19.77;32.78;100500.81;1705182;84;20950;-59
2022/04/19 04:52:18;;;;;;;2.98;1.75;;;;;;;19.81;32.74;100509.27;1712395;82;20975;-59
2022/04/19 04:54:44;;;;;;;3.55;1.90;;;;;;;19.84;32.73;100512.20;1702045;81;21083;-60
2022/04/19 04:57:10;;;;;;;3.77;1.65;;;;;;;19.87;32.72;100517.08;1700654;82;20989;-59
2022/04/19 04:59:36;;;;;;;2.30;1.80;;;;;;;19.89;32.72;100518.97;1695328;82;21263;-59
2022/04/19 05:02:08;;;;;;;2.95;1.50;;;;;;;19.93;32.73;100526.85;1695421;84;21000;-59
2022/04/19 05:04:35;;;;;;;2.15;1.57;;;;;;;19.95;32.74;100530.66;1703165;82;20977;-60
2022/04/19 05:07:02;;;;;;;3.05;2.15;;;;;;;19.97;32.77;100529.78;1704801;83;21509;-60
2022/04/19 05:09:28;;;;;;;4.20;2.50;;;;;;;19.97;32.80;100535.31;1680228;84;20945;-60
2022/04/19 05:11:54;;;;;;;4.03;2.60;;;;;;;19.97;32.85;100535.31;1695397;83;21137;-60
2022/04/19 05:14:20;;;;;;;2.50;2.17;;;;;;;19.97;32.89;100535.31;1704528;82;20996;-60
2022/04/19 05:16:46;;;;;;;5.15;2.47;;;;;;;19.98;32.92;100536.94;1700565;82;21279;-60
2022/04/19 05:19:12;;;;;;;3.22;2.47;;;;;;;19.99;32.94;100542.69;1717361;82;20945;-59
2022/04/19 05:21:38;;;;;;;3.80;2.65;;;;;;;19.99;33.00;100537.98;1703023;82;21484;-59
2022/04/19 05:24:06;;;;;;;4.20;2.60;;;;;;;20.02;33.06;100546.22;1714350;82;21002;-60
2022/04/19 05:26:33;;;;;;;3.20;2.37;;;;;;;20.04;33.09;100547.51;1727591;81;20966;-60
2022/04/19 05:28:58;;;;;;;3.90;2.17;;;;;;;20.06;33.13;100539.73;1736242;80;21009;-59
2022/04/19 05:31:25;;;;;;;3.80;2.17;;;;;;;20.08;33.14;100544.35;1728794;80;20878;-60
2022/04/19 05:33:51;;;;;;;3.05;2.00;;;;;;;20.12;33.16;100545.09;1733745;81;21427;-60
2022/04/19 05:36:23;;;;;;;3.33;2.08;;;;;;;20.13;33.15;100547.53;1734546;81;21303;-60
2022/04/19 05:38:52;;;;;;;3.08;2.20;;;;;;;20.16;33.18;100550.21;1730397;81;21437;-60
2022/04/19 05:41:21;;;;;;;4.28;2.20;;;;;;;20.17;33.18;100547.70;1736521;81;20942;-60
2022/04/19 05:43:48;;;;;;;4.58;2.47;;;;;;;20.19;33.16;100557.31;1708450;82;21230;-59
2022/04/19 05:46:16;;;;;;;5.15;2.17;;;;;;;20.21;33.17;100561.12;1700382;83;21558;-60
2022/04/19 05:48:46;;;;;;;5.20;2.02;;;;;;;20.21;33.21;100566.08;1718639;81;21957;-60
2022/04/19 05:51:12;;;;;;;5.90;2.50;;;;;;;20.23;33.23;100560.25;1726454;80;21052;-60
2022/04/19 05:53:41;;;;;;;3.20;2.20;;;;;;;20.23;33.28;100563.01;1736371;80;20993;-60
2022/04/19 05:56:07;;;;;;;4.25;2.37;;;;;;;20.25;33.31;100567.62;1736127;81;21047;-60
2022/04/19 05:58:33;;;;;;;4.65;2.05;;;;;;;20.26;33.34;100565.94;1732447;81;21450;-59
2022/04/19 06:01:01;;;;;;;3.52;2.10;;;;;;;20.27;33.37;100566.19;1729445;81;21147;-60
2022/04/19 06:06:14;;;;;;;5.55;2.15;;;;;;;20.28;33.45;100565.63;1731193;82;21008;-59
2022/04/19 06:08:42;;;;;;;4.03;1.95;;;;;;;20.28;33.55;100571.16;1730386;81;22056;-60
2022/04/19 06:11:12;;;;;;;3.67;2.25;;;;;;;20.29;33.59;100574.14;1734908;80;21427;-60
2022/04/19 06:13:37;;;;;;;3.80;2.25;;;;;;;20.29;33.72;100587.42;1726308;80;21687;-60
2022/04/19 06:16:05;;;;;;;4.33;1.90;;;;;;;20.30;33.85;100579.38;1731647;81;20973;-60
2022/04/19 06:18:31;;;;;;;4.08;1.98;;;;;;;20.31;33.94;100582.97;1741109;82;20863;-59
2022/04/19 06:20:57;;;;;;;2.92;1.90;;;;;;;20.32;34.07;100582.66;1681591;83;20950;-60
2022/04/19 06:23:30;;;;;;;3.77;2.40;;;;;;;20.33;34.18;100583.45;1699605;84;20895;-60
2022/04/19 06:25:56;;;;;;;3.50;1.70;;;;;;;20.35;34.20;100582.00;1712740;82;21081;-60
2022/04/19 06:28:22;;;;;;;3.52;2.00;;;;;;;20.38;34.18;100590.21;1710572;82;20968;-60
2022/04/19 06:30:49;;;;;;;5.85;2.00;;;;;;;20.39;34.23;100586.31;1697770;82;21048;-59
2022/04/19 06:33:15;;;;;;;4.47;1.77;;;;;;;20.40;34.32;100590.72;1708734;82;20957;-60
2022/04/19 06:35:41;;;;;;;6.28;2.33;;;;;;;20.41;34.36;100590.38;1698024;82;21182;-60
2022/04/19 06:38:09;;;;;;;7.25;1.98;;;;;;;20.42;34.33;100596.72;1704817;83;21310;-60
2022/04/19 06:40:35;;;;;;;3.65;2.42;;;;;;;20.43;34.32;100592.27;1692075;83;21466;-60
2022/04/19 06:43:02;;;;;;;2.80;2.05;;;;;;;20.44;34.32;100591.14;1698471;84;20914;-60
2022/04/19 06:45:28;;;;;;;3.70;2.30;;;;;;;20.46;34.29;100599.91;1674511;84;21337;-60
2022/04/19 06:48:01;;;;;;;3.27;2.27;;;;;;;20.45;34.29;100601.03;1690008;82;20965;-60
2022/04/19 06:50:27;;;;;;;4.87;2.12;;;;;;;20.46;34.31;100602.67;1712797;82;22195;-60
2022/04/19 06:52:53;;;;;;;4.33;2.55;;;;;;;20.47;34.42;100603.48;1702472;84;21434;-60
2022/04/19 06:55:20;;;;;;;5.00;2.67;;;;;;;20.47;34.46;100598.77;1680829;82;21025;-60
2022/04/19 06:57:49;;;;;;;3.05;2.30;;;;;;;20.50;34.38;100601.45;1697987;84;20985;-61
2022/04/19 07:00:17;;;;;;;5.80;2.75;;;;;;;20.50;34.35;100605.03;1709083;82;21445;-60
2022/04/19 07:02:44;;;;;;;5.70;2.60;;;;;;;20.50;34.29;100603.65;1696266;84;21303;-60
2022/04/19 07:05:17;;;;;;;13.32;3.33;;;;;;;20.52;34.32;100613.02;1699954;84;21207;-61
2022/04/19 07:07:43;;;;;;;6.62;2.83;;;;;;;20.51;34.44;100607.23;1685655;83;20991;-60
2022/04/19 07:10:11;;;;;;;3.85;2.98;;;;;;;20.51;34.46;100609.43;1704942;82;21060;-60
2022/04/19 07:12:39;;;;;;;5.33;3.10;;;;;;;20.54;34.43;100605.79;1700777;82;21049;-61
2022/04/19 07:15:07;;;;;;;6.17;3.60;;;;;;;20.54;34.45;100605.79;1694532;84;21485;-60
2022/04/19 07:17:40;;;;;;;8.25;3.70;;;;;;;20.55;34.40;100610.16;1722166;82;20914;-61
2022/04/19 07:28:22;;;;;;;5.65;4.00;;;;;;;20.58;34.22;100614.47;1686244;83;22015;-61
2022/04/19 07:30:48;;;;;;;10.60;5.17;;;;;;;20.58;34.17;100613.69;1686220;84;21001;-61
2022/04/19 07:33:16;;;;;;;7.17;4.05;;;;;;;20.58;34.11;100610.33;1676454;85;21084;-61
2022/04/19 07:35:44;;;;;;;10.28;4.80;;;;;;;20.60;34.29;100616.92;1671046;85;21055;-61
2022/04/19 07:38:10;;;;;;;9.50;5.67;;;;;;;20.61;34.47;100618.56;1679340;84;21072;-61
2022/04/19 07:40:36;;;;;;;12.40;5.37;;;;;;;20.62;34.42;100620.20;1670785;84;22215;-61
2022/04/19 07:43:02;;;;;;;8.15;5.35;;;;;;;20.61;34.44;100621.33;1689973;83;20922;-61
2022/04/19 07:45:29;;;;;;;8.95;5.72;;;;;;;20.61;34.45;100633.77;1691330;83;22084;-61
2022/04/19 07:47:55;;;;;;;13.32;6.90;;;;;;;20.60;34.42;100623.27;1688674;84;20949;-61
2022/04/19 07:50:22;;;;;;;7.97;6.15;;;;;;;20.60;34.38;100621.89;1692501;83;21354;-61
2022/04/19 07:52:48;;;;;;;17.55;7.03;;;;;;;20.62;34.40;100622.96;1703970;82;21216;-61
2022/04/19 07:55:14;;;;;;;13.48;6.78;;;;;;;20.62;34.44;100627.11;1734318;80;21276;-59
2022/04/19 07:57:40;;;;;;;14.18;8.08;;;;;;;20.63;34.47;100624.56;1770546;80;20972;-60
2022/04/19 08:00:08;;;;;;;12.35;8.45;;;;;;;20.63;34.46;100635.05;1774484;80;20967;-59
2022/04/19 08:02:35;;;;;;;12.43;9.30;;;;;;;20.65;34.53;100640.27;1756430;80;20958;-60
2022/04/19 08:05:01;;;;;;;13.83;9.90;;;;;;;20.66;34.60;100642.73;1738649;82;21153;-59
2022/04/19 08:07:27;;;;;;;17.15;11.63;;;;;;;20.67;34.60;100638.80;1734246;82;21116;-60
2022/04/19 08:09:55;;;;;;;22.60;13.00;;;;;;;20.67;34.52;100636.61;1742709;81;21003;-60
2022/04/19 08:12:21;;;;;;;25.92;13.53;;;;;;;20.69;34.50;100638.49;1739950;81;20932;-59
2022/04/19 08:14:48;;;;;;;17.15;11.03;;;;;;;20.71;34.57;100637.02;1741400;80;21418;-60
2022/04/19 08:17:14;;;;;;;26.62;14.53;;;;;;;20.72;34.64;100640.60;1752173;80;22014;-60
2022/04/19 08:19:40;;;;;;;23.00;14.73;;;;;;;20.71;34.67;100634.86;1745384;80;21534;-60
2022/04/19 08:22:07;;;;;;;28.45;15.20;;;;;;;20.71;34.71;100638.41;1722671;82;20979;-60
2022/04/19 08:24:33;;;;;;;31.60;16.15;;;;;;;20.72;34.79;100637.28;1684361;83;21015;-60
2022/04/19 08:27:00;;;;;;;29.37;17.00;;;;;;;20.74;34.93;100639.73;1733861;82;21420;-60
2022/04/19 08:29:26;;;;;;;28.90;17.50;;;;;;;20.74;34.97;100636.96;1726301;82;21199;-60
2022/04/19 08:31:52;;;;;;;30.80;16.97;;;;;;;20.74;34.99;100636.40;1703491;83;21033;-60
2022/04/19 08:34:18;;;;;;;36.88;17.67;;;;;;;20.75;34.99;100636.63;1699777;83;20973;-60
2022/04/19 08:36:45;;;;;;;34.05;17.32;;;;;;;20.76;34.96;100634.67;1696142;84;21388;-60
2022/04/19 08:39:12;;;;;;;40.78;21.90;;;;;;;20.76;34.97;100631.91;1708358;83;21047;-59
2022/04/19 08:41:41;;;;;;;29.00;18.10;;;;;;;20.76;35.05;100632.73;1738382;82;21060;-60
2022/04/19 08:44:08;;;;;;;29.37;17.37;;;;;;;20.78;35.15;100627.70;1751105;80;21023;-60
2022/04/19 08:46:39;;;;;;;34.25;19.60;;;;;;;20.78;35.28;100629.09;1745724;80;20972;-60
2022/04/19 08:49:06;;;;;;;33.95;18.65;;;;;;;20.79;35.37;100625.76;1740069;81;20888;-60
2022/04/19 08:51:35;;;;;;;35.52;17.90;;;;;;;20.80;35.43;100627.36;1738948;80;20944;-59
2022/04/19 08:59:32;;;;;;;29.40;17.23;;;;;;;20.80;35.56;100634.27;1727880;80;21021;-60
2022/04/19 09:01:59;;;;;;;30.40;17.62;;;;;;;20.81;35.51;100625.67;1711499;83;21232;-60
2022/04/19 09:04:25;;;;;;;35.40;18.00;;;;;;;20.83;35.55;100625.36;1715528;83;20896;-60
2022/04/19 09:06:59;;;;;;;28.67;17.42;;;;;;;20.83;35.59;100621.20;1708168;82;21217;-60
2022/04/19 09:09:27;;;;;;;34.13;19.12;;;;;;;20.85;35.50;100625.83;1723983;81;21006;-60
2022/04/19 09:11:55;;;;;;;27.37;17.98;;;;;;;20.85;35.53;100621.11;1719214;82;20964;-60
2022/04/19 09:14:25;;;;;;;31.68;18.23;;;;;;;20.85;35.52;100620.30;1683763;83;21052;-60
2022/04/19 09:17:02;;;;;;;26.02;17.25;;;;;;;20.86;35.54;100624.13;1734062;80;21483;-60
2022/04/19 09:19:28;;;;;;;46.05;19.32;;;;;;;20.89;35.53;100620.71;1736081;80;21032;-60
2022/04/19 09:21:54;;;;;;;29.05;17.60;;;;;;;20.89;35.51;100620.71;1735300;82;21970;-60
2022/04/19 09:24:22;;;;;;;28.65;17.27;;;;;;;20.90;35.49;100625.11;1736486;82;20961;-60
2022/04/19 09:26:48;;;;;;;31.55;17.42;;;;;;;20.91;35.47;100623.16;1737754;82;21457;-60
2022/04/19 09:29:25;;;;;;;33.75;17.45;;;;;;;20.91;35.46;100620.41;1737523;82;20998;-60
2022/04/19 09:32:01;;;;;;;27.95;17.10;;;;;;;20.92;35.44;100615.91;1738413;82;21139;-60
2022/04/19 09:34:33;;;;;;;33.25;19.15;;;;;;;20.94;35.43;100614.21;1702028;83;20996;-60
2022/04/19 09:37:10;;;;;;;28.73;17.52;;;;;;;20.94;35.42;100619.74;1743363;82;20980;-60
2022/04/19 09:39:37;;;;;;;30.02;17.37;;;;;;;20.95;35.40;100608.93;1748630;81;20918;-60
2022/04/19 09:42:08;;;;;;;23.07;16.05;;;;;;;20.96;35.35;100614.72;1750290;81;20905;-60
2022/04/19 09:44:42;;;;;;;24.95;16.32;;;;;;;20.96;35.40;100614.13;1749306;81;21069;-60
2022/04/19 09:47:12;;;;;;;28.05;17.35;;;;;;;21.00;35.40;100625.94;1747390;81;21000;-60
2022/04/19 09:49:48;;;;;;;26.48;15.55;;;;;;;21.01;35.34;100624.78;1739304;80;21064;-60
2022/04/19 09:52:27;;;;;;;21.40;17.80;;;;;;;21.02;35.28;100626.41;1737881;82;20950;-60
2022/04/19 09:55:08;;;;;;;32.53;17.77;;;;;;;21.01;35.26;100621.45;1743497;80;21060;-60
2022/04/19 09:57:39;;;;;;;25.50;17.70;;;;;;;21.04;35.24;100624.16;1719611;81;21298;-60
2022/04/19 10:00:12;;;;;;;26.97;16.57;;;;;;;21.05;35.27;100624.41;1738611;81;21159;-60
2022/04/19 10:08:19;;;;;;;26.85;17.00;;;;;;;21.08;35.26;100616.83;1742351;82;21051;-60
2022/04/19 10:10:49;;;;;;;23.52;16.60;;;;;;;21.08;35.28;100621.80;1743839;82;22190;-60
2022/04/19 10:13:18;;;;;;;23.67;16.67;;;;;;;21.09;35.27;100617.08;1740639;82;21299;-60
2022/04/19 10:15:44;;;;;;;31.00;19.07;;;;;;;21.09;35.28;100614.31;1743262;82;20996;-60
2022/04/19 10:18:10;;;;;;;30.40;16.75;;;;;;;21.09;35.30;100612.93;1742306;82;21088;-62
2022/04/19 10:20:41;;;;;;;23.73;16.97;;;;;;;21.11;35.28;100612.02;1742091;81;21017;-60
2022/04/19 10:23:09;;;;;;;23.00;16.07;;;;;;;21.11;35.28;100609.25;1728273;82;21336;-60
2022/04/19 10:25:46;;;;;;;31.23;16.48;;;;;;;21.12;35.26;100607.59;1746251;81;21354;-60
2022/04/19 10:28:15;;;;;;;23.18;15.68;;;;;;;21.13;35.25;100606.42;1745070;82;21036;-60
2022/04/19 10:30:52;;;;;;;23.73;15.32;;;;;;;21.12;35.21;100597.91;1741155;82;21490;-60
2022/04/19 10:33:51;;;;;;;20.23;16.57;;;;;;;21.14;35.19;100603.91;1739723;82;20914;-60
2022/04/19 10:36:37;;;;;;;23.55;15.40;;;;;;;21.16;35.14;100602.21;1745094;81;21593;-60
2022/04/19 10:39:18;;;;;;;20.65;15.65;;;;;;;21.16;35.12;100591.14;1749584;81;20933;-60
2022/04/19 10:42:02;;;;;;;22.13;15.72;;;;;;;21.16;35.08;100593.34;1748245;81;20977;-60
2022/04/19 10:44:46;;;;;;;19.17;15.10;;;;;;;21.17;35.06;100594.16;1714482;80;20989;-60
2022/04/19 10:47:17;;;;;;;20.55;15.20;;;;;;;21.17;35.05;100584.48;1734759;81;20973;-60
2022/04/19 10:49:52;;;;;;;22.45;15.15;;;;;;;21.17;35.06;100595.55;1742019;82;21752;-60
2022/04/19 10:52:43;;;;;;;20.15;14.65;;;;;;;21.17;35.12;100586.67;1743917;82;21179;-60
2022/04/19 10:55:21;;;;;;;19.75;14.75;;;;;;;21.20;35.12;100590.16;1746458;80;20992;-60
2022/04/19 10:58:20;;;;;;;18.37;14.78;;;;;;;21.20;35.10;100588.78;1715107;82;20965;-60
2022/04/19 11:00:52;;;;;;;24.18;15.20;;;;;;;21.18;35.03;100581.36;1717918;82;20983;-60
2022/04/19 11:03:22;;;;;;;21.87;15.25;;;;;;;21.17;35.01;100584.48;1652691;85;21110;-60
2022/04/19 11:05:52;;;;;;;25.40;15.63;;;;;;;21.15;35.03;100583.98;1666637;84;21069;-60
2022/04/19 11:08:31;;;;;;;21.02;14.75;;;;;;;21.13;35.02;100580.14;1692697;82;32516;-60
2022/04/19 11:11:04;;;;;;;18.70;14.85;;;;;;;21.11;35.01;100578.83;1739717;80;22096;-60
2022/04/19 11:13:38;;;;;;;18.77;14.83;;;;;;;21.09;35.02;100577.75;1740111;81;21021;-60
2022/04/19 11:16:08;;;;;;;18.23;15.32;;;;;;;21.05;35.03;100580.94;1740953;81;21129;-60
2022/04/19 11:18:43;;;;;;;25.08;15.23;;;;;;;21.04;35.17;100577.13;1743261;81;21107;-60
2022/04/19 11:21:15;;;;;;;20.23;14.38;;;;;;;21.02;35.26;100576.06;1749085;81;21056;-60
2022/04/19 11:23:45;;;;;;;16.62;14.07;;;;;;;21.00;35.29;100567.29;1730716;80;21310;-60
2022/04/19 11:26:33;;;;;;;19.27;14.15;;;;;;;20.97;35.30;100574.83;1737741;81;21025;-60
2022/04/19 11:29:14;;;;;;;19.65;13.60;;;;;;;20.94;35.33;100574.93;1736990;80;21006;-60
2022/04/19 11:31:48;;;;;;;17.25;14.43;;;;;;;20.92;35.36;100576.37;1688039;82;20995;-60
2022/04/19 11:34:16;;;;;;;20.10;14.58;;;;;;;20.88;35.38;100566.53;1682189;83;21327;-60
2022/04/19 11:36:48;;;;;;;18.27;14.05;;;;;;;20.87;35.38;100566.88;1675806;84;20938;-60
2022/04/19 11:46:44;;;;;;;17.57;13.25;;;;;;;20.85;35.41;100566.37;1681865;84;20969;-60
2022/04/19 11:47:17;;;;;;;17.62;13.70;;;;;;;20.77;35.44;100557.52;1658446;84;20945;-60
2022/04/19 11:49:43;;;;;;;21.68;14.55;;;;;;;20.74;35.45;100554.84;1710191;82;21417;-60
2022/04/19 11:52:12;;;;;;;18.85;13.88;;;;;;;20.72;35.45;100558.48;1749562;80;21017;-60
2022/04/19 11:54:38;;;;;;;23.83;13.80;;;;;;;20.71;35.46;100556.84;1735669;80;21214;-60
2022/04/19 11:57:06;;;;;;;19.05;13.58;;;;;;;20.69;35.49;100546.70;1741711;80;21735;-60
2022/04/19 11:59:38;;;;;;;19.35;13.15;;;;;;;20.67;35.49;100546.20;1746322;80;21406;-60
2022/04/19 12:02:14;;;;;;;18.77;13.22;;;;;;;20.65;35.51;100543.52;1734701;82;20961;-60
2022/04/19 12:04:56;;;;;;;17.77;13.32;;;;;;;20.63;35.52;100538.31;1732194;82;21021;-60